GMME/RBA METAR and TAF weather

Enter ICAO airport designator
Station Type Date Time Source
GMME METAR 2022/06/29 00:00 UTC NOAA

GMME 290000Z 28003KT 5000 FEW010 SCT016 19/18 Q1017 NOSIG


Station Type Date Time Source
GMME Decoded METAR 2022/06/29 00:00 UTC NOAA

Rabat-Sale, Morocco (GMME) 34-03N 006-46W 75M
Jun 28, 2022 - 08:00 PM EDT / 2022.06.29 0000 UTC
Wind: from the W (280 degrees) at 3 MPH (3 KT):0
Visibility: 3 mile(s):0
Sky conditions: partly cloudy
Temperature: 66 F (19 C)
Dew Point: 64 F (18 C)
Relative Humidity: 93%
Pressure (altimeter): 30.03 in. Hg (1017 hPa)
ob: GMME 290000Z 28003KT 5000 FEW010 SCT016 19/18 Q1017 NOSIG
cycle: 0

Station Type Date Time Source
GMME TAF 2022/06/28 18:18 UTC NOAA

TAF TAF GMME 281700Z 2818/2924 32010KT 8000 SCT016
TEMPO 2818/2821 36010G20KT
BECMG 2906/2910 34011G22KT

Example: see airport list